This is the latest recevied weather packets stored in our database for station/object JH0FOG-13. If no packets are shown the sender has not sent any weather packets the latest 10 day(s).
| Time | Temp. | Humidity | Pressure | Rain* | Wind** | Luminosity | Snow |
|---|---|---|---|---|---|---|---|
| 1778206804 | 23.33° C | 61% | 1005.3 hPa | 0 mm | - | - | - |
| 1778205604 | 23.33° C | 63% | 1005.3 hPa | 0 mm | - | - | - |
| 1778204404 | 23.33° C | 62% | 1005.7 hPa | 0 mm | - | - | - |
| 1778203204 | 22.78° C | 62% | 1005.8 hPa | 0 mm | - | - | - |
| 1778202004 | 22.22° C | 66% | 1006.3 hPa | 0 mm | - | - | - |
| 1778200804 | 21.67° C | 66% | 1006.3 hPa | 0 mm | - | - | - |
| 1778199604 | 21.67° C | 66% | 1006.7 hPa | 0 mm | - | - | - |
| 1778197204 | 20° C | 73% | 1007.2 hPa | 0 mm | - | - | - |
| 1778196003 | 20.56° C | 68% | 1007.4 hPa | 0 mm | - | - | - |
| 1778191203 | 18.33° C | 75% | 1008.2 hPa | 0 mm | - | - | - |
| 1778190003 | 17.22° C | 76% | 1008.4 hPa | 0 mm | - | - | - |
| 1778187612 | 16.11° C | 80% | 1008.3 hPa | 0 mm | - | - | - |
| 1778185203 | 13.33° C | 85% | 1008 hPa | 0 mm | - | - | - |
| 1778184003 | 13.33° C | 85% | 1008 hPa | 0 mm | - | - | - |
| 1778182804 | 13.33° C | 85% | 1008.1 hPa | 0 mm | - | - | - |
| 1778181603 | 13.33° C | 84% | 1008.2 hPa | 0 mm | - | - | - |
| 1778180403 | 13.89° C | 83% | 1008.5 hPa | 0 mm | - | - | - |
| 1778179203 | 14.44° C | 82% | 1008.2 hPa | 0 mm | - | - | - |
| 1778178003 | 13.89° C | 83% | 1007.9 hPa | 0 mm | - | - | - |
| 1778176803 | 14.44° C | 82% | 1007.8 hPa | 0 mm | - | - | - |
| 1778175603 | 14.44° C | 83% | 1008.2 hPa | 0 mm | - | - | - |
| 1778174404 | 13.89° C | 84% | 1008.4 hPa | 0 mm | - | - | - |
| 1778173204 | 13.89° C | 84% | 1008.6 hPa | 0 mm | - | - | - |
| 1778172004 | 13.89° C | 84% | 1008.9 hPa | 0 mm | - | - | - |
| 1778170804 | 14.44° C | 84% | 1009.1 hPa | 0 mm | - | - | - |
* Rain latest hour (hover to see other rain measurements)
** Current wind speed in m/s (hover to see current wind gust speed)